Time;durP1;ratioP1;P1;durP2;ratioP2;P2;SDS_P1;SDS_P2;PMS_P1;PMS_P2;Temp;Humidity;BMP_temperature;BMP_pressure;BME280_temperature;BME280_humidity;BME280_pressure;Samples;Min_cycle;Max_cycle;Signal;HPM_P1;HPM_P2
2024/04/16 00:01:59;;;;;;;9.60;2.10;;;;;;;11.19;88.64;95158.05;108474;1275;22527;-72
2024/04/16 00:04:30;;;;;;;5.00;1.50;;;;;;;11.21;88.54;95120.69;108575;1270;25332;-73
2024/04/16 00:07:00;;;;;;;9.30;2.10;;;;;;;11.20;88.58;95112.32;108511;1273;23428;-73
2024/04/16 00:09:31;;;;;;;7.40;1.80;;;;;;;11.17;88.52;95129.34;108581;1275;22671;-72
2024/04/16 00:12:03;;;;;;;6.50;1.50;;;;;;;11.15;88.47;95141.77;108543;1271;22564;-72
2024/04/16 00:14:33;;;;;;;6.70;1.50;;;;;;;11.15;88.32;95134.10;108626;1275;22572;-73
2024/04/16 00:17:04;;;;;;;6.20;1.50;;;;;;;11.18;88.21;95130.34;108508;1271;23739;-73
2024/04/16 00:19:35;;;;;;;9.00;1.90;;;;;;;11.20;88.05;95127.63;108531;1275;22536;-72
2024/04/16 00:22:06;;;;;;;5.80;1.60;;;;;;;11.21;87.97;95132.20;108559;1275;22523;-73
2024/04/16 00:24:36;;;;;;;10.00;2.00;;;;;;;11.24;87.72;95130.34;108504;1276;22524;-73
2024/04/16 00:27:07;;;;;;;6.60;1.30;;;;;;;11.28;87.52;95127.60;108515;1275;30759;-72
2024/04/16 00:29:38;;;;;;;7.10;1.00;;;;;;;11.35;86.85;95115.80;108566;1275;25426;-73
2024/04/16 00:32:11;;;;;;;4.90;1.60;;;;;;;11.45;85.92;95113.00;108525;1275;22541;-72
2024/04/16 00:34:42;;;;;;;5.40;1.20;;;;;;;11.55;85.54;95103.77;108488;1273;22532;-72
2024/04/16 00:37:14;;;;;;;4.20;1.00;;;;;;;11.62;85.20;95104.02;108425;1269;25275;-73
2024/04/16 00:39:44;;;;;;;3.20;1.40;;;;;;;11.63;84.91;95111.02;108493;1275;25257;-73
2024/04/16 00:42:15;;;;;;;11.00;1.40;;;;;;;11.64;84.58;95109.86;108501;1275;22528;-72
2024/04/16 00:44:45;;;;;;;2.40;1.00;;;;;;;11.72;83.50;95120.85;108676;1275;23806;-72
2024/04/16 00:47:17;;;;;;;4.00;1.40;;;;;;;11.78;82.93;95126.26;108632;1275;22540;-72
2024/04/16 00:49:48;;;;;;;2.70;0.80;;;;;;;11.81;82.57;95114.85;108626;1271;22653;-72
2024/04/16 00:52:19;;;;;;;3.40;0.90;;;;;;;11.85;81.33;95107.63;108596;1253;22526;-73
2024/04/16 00:54:49;;;;;;;5.70;1.20;;;;;;;11.93;81.15;95105.88;108557;1273;22530;-73
2024/04/16 00:57:21;;;;;;;2.50;0.90;;;;;;;11.95;81.21;95106.56;108543;1275;24754;-72
2024/04/16 00:59:52;;;;;;;1.90;0.70;;;;;;;11.93;81.01;95101.04;108570;1269;22529;-72
2024/04/16 01:02:23;;;;;;;6.50;1.60;;;;;;;11.93;80.28;95095.13;108523;1271;22604;-72
2024/04/16 01:04:54;;;;;;;3.70;0.90;;;;;;;11.96;80.47;95091.35;108605;1275;22727;-73
2024/04/16 01:07:25;;;;;;;3.30;1.30;;;;;;;11.91;80.10;95081.99;108702;1275;22525;-73
2024/04/16 01:09:56;;;;;;;6.60;1.10;;;;;;;11.88;80.15;95084.42;108645;1273;26418;-73
2024/04/16 01:12:27;;;;;;;4.90;1.10;;;;;;;11.85;80.03;95078.61;108726;1274;22533;-74
2024/04/16 01:14:58;;;;;;;3.10;1.30;;;;;;;11.84;79.11;95072.21;108691;1270;22530;-73
2024/04/16 01:17:30;;;;;;;4.80;1.10;;;;;;;11.86;78.90;95079.63;108735;1270;24202;-73
2024/04/16 01:20:00;;;;;;;8.40;1.70;;;;;;;11.84;78.52;95071.98;108659;1275;23244;-72
2024/04/16 01:22:32;;;;;;;5.20;1.30;;;;;;;11.85;78.48;95066.80;108535;1270;24297;-73
2024/04/16 01:25:02;;;;;;;7.00;1.20;;;;;;;11.84;77.92;95060.52;108603;1275;22546;-72
2024/04/16 01:27:33;;;;;;;5.40;1.60;;;;;;;11.85;78.02;95059.20;108574;1275;24399;-73
2024/04/16 01:30:04;;;;;;;5.40;1.10;;;;;;;11.79;78.48;95058.57;108641;1269;22540;-73
2024/04/16 01:32:35;;;;;;;3.80;1.00;;;;;;;11.74;78.47;95056.01;108604;1275;25474;-73
2024/04/16 01:35:06;;;;;;;2.40;1.00;;;;;;;11.69;78.51;95042.42;108607;1274;23345;-73
2024/04/16 01:37:37;;;;;;;4.70;1.00;;;;;;;11.69;78.37;95050.89;108581;1270;22560;-73
2024/04/16 01:40:11;;;;;;;4.00;1.10;;;;;;;11.67;78.41;95059.45;108577;1275;23602;-73
2024/04/16 01:42:41;;;;;;;3.90;0.80;;;;;;;11.63;78.50;95059.95;108600;1270;22545;-73
2024/04/16 01:45:14;;;;;;;4.70;1.00;;;;;;;11.64;78.49;95049.32;108644;1276;22530;-73
2024/04/16 01:47:46;;;;;;;2.30;0.60;;;;;;;11.64;78.34;95053.66;108569;1275;22538;-73
2024/04/16 01:50:17;;;;;;;5.80;0.80;;;;;;;11.66;78.11;95048.73;108542;1271;22530;-73
2024/04/16 01:52:48;;;;;;;2.00;0.50;;;;;;;11.68;77.57;95067.71;108596;1275;22531;-73
2024/04/16 01:55:18;;;;;;;6.60;0.90;;;;;;;11.72;77.20;95068.39;108631;1270;22522;-73
2024/04/16 01:57:51;;;;;;;4.80;1.00;;;;;;;11.75;77.16;95060.30;108613;1275;23418;-73
2024/04/16 02:00:21;;;;;;;5.70;0.90;;;;;;;11.74;77.49;95068.37;108636;1270;22530;-73
2024/04/16 02:02:53;;;;;;;1.50;0.70;;;;;;;11.70;77.35;95051.38;108562;1275;22587;-73
2024/04/16 02:05:23;;;;;;;2.40;1.00;;;;;;;11.72;76.91;95034.03;108574;1275;22528;-73
2024/04/16 02:07:56;;;;;;;5.00;1.00;;;;;;;11.71;77.13;95038.85;108563;1273;22554;-73
2024/04/16 02:10:27;;;;;;;8.50;1.40;;;;;;;11.69;77.43;95051.14;108581;1275;24251;-73
2024/04/16 02:12:58;;;;;;;5.40;1.40;;;;;;;11.67;76.66;95036.27;108576;1272;23825;-73
2024/04/16 02:15:28;;;;;;;2.20;0.80;;;;;;;11.69;76.55;95041.89;108543;1275;26588;-73
2024/04/16 02:17:59;;;;;;;1.00;0.50;;;;;;;11.67;74.61;95034.36;108473;1275;22618;-73
2024/04/16 02:20:30;;;;;;;3.30;0.80;;;;;;;11.64;73.49;95067.67;108472;1275;24258;-73
2024/04/16 02:23:00;;;;;;;3.30;0.80;;;;;;;11.58;74.47;95077.79;108525;1275;22625;-73
2024/04/16 02:25:31;;;;;;;1.50;0.60;;;;;;;11.49;75.32;95095.80;108559;1275;22560;-73
2024/04/16 02:28:02;;;;;;;2.90;0.70;;;;;;;11.42;76.06;95106.36;108498;1275;23210;-73
2024/04/16 02:30:33;;;;;;;5.10;0.90;;;;;;;11.35;76.73;95108.42;108569;1275;22534;-74
2024/04/16 02:33:04;;;;;;;3.50;0.80;;;;;;;11.32;77.24;95108.48;108587;1275;24300;-73
2024/04/16 02:35:38;;;;;;;1.70;0.80;;;;;;;11.29;77.67;95111.11;108491;1275;22649;-73
2024/04/16 02:38:11;;;;;;;2.80;1.00;;;;;;;11.28;78.51;95120.54;108441;1275;22574;-73
2024/04/16 02:40:42;;;;;;;5.50;0.80;;;;;;;11.21;79.60;95139.66;108526;1270;22536;-74
2024/04/16 02:43:13;;;;;;;2.70;0.70;;;;;;;11.00;79.93;95158.70;108476;1270;22528;-74
2024/04/16 02:45:44;;;;;;;10.50;0.90;;;;;;;10.66;79.50;95164.79;108508;1275;22545;-74
2024/04/16 02:48:14;;;;;;;1.30;0.70;;;;;;;10.25;80.18;95162.61;108490;1275;23455;-73
2024/04/16 02:50:47;;;;;;;2.80;1.00;;;;;;;9.98;81.40;95165.05;108604;1273;22607;-74
2024/04/16 02:53:18;;;;;;;0.40;0.40;;;;;;;9.83;82.65;95167.05;108501;1275;22520;-74
2024/04/16 02:55:49;;;;;;;1.60;0.60;;;;;;;9.73;83.77;95163.63;108531;1275;22594;-74
2024/04/16 02:58:19;;;;;;;1.70;0.40;;;;;;;9.57;85.93;95179.00;108394;1270;22543;-74
2024/04/16 03:00:50;;;;;;;2.50;0.70;;;;;;;9.47;86.08;95193.81;108445;1276;22525;-74
2024/04/16 03:03:20;;;;;;;2.20;0.60;;;;;;;9.44;86.17;95189.09;108432;1273;22530;-73
2024/04/16 03:05:58;;;;;;;0.30;0.30;;;;;;;9.39;86.14;95200.17;108436;1270;25338;-73
2024/04/16 03:08:29;;;;;;;1.20;0.60;;;;;;;9.32;86.74;95193.21;108400;1276;22541;-74
2024/04/16 03:11:01;;;;;;;0.60;0.20;;;;;;;9.20;87.14;95192.00;108457;1276;23040;-73
2024/04/16 03:13:31;;;;;;;1.10;0.30;;;;;;;9.07;87.50;95195.76;108361;1276;22528;-73
2024/04/16 03:16:09;;;;;;;0.60;0.30;;;;;;;8.97;88.21;95208.31;108393;1275;22531;-73
2024/04/16 03:18:39;;;;;;;1.00;0.60;;;;;;;8.90;89.30;95190.42;108612;1275;22548;-74
2024/04/16 03:21:10;;;;;;;0.70;0.30;;;;;;;8.86;89.85;95196.05;108607;1275;22558;-73
2024/04/16 03:23:41;;;;;;;1.30;0.30;;;;;;;8.79;91.01;95194.42;108232;1275;398568;-74
2024/04/16 03:26:11;;;;;;;0.40;0.30;;;;;;;8.72;91.06;95194.91;108529;1265;22556;-74
2024/04/16 03:28:42;;;;;;;1.10;0.30;;;;;;;8.71;91.07;95210.55;108528;1275;22786;-73
2024/04/16 03:31:13;;;;;;;0.40;0.30;;;;;;;8.76;91.37;95210.73;108580;1275;25337;-73
2024/04/16 03:33:43;;;;;;;0.50;0.20;;;;;;;8.74;91.63;95203.20;108524;1275;22533;-73
2024/04/16 03:36:14;;;;;;;2.60;0.40;;;;;;;8.72;91.58;95174.09;108451;1273;25366;-74
2024/04/16 03:38:44;;;;;;;0.30;0.30;;;;;;;8.70;91.73;95187.40;108536;1275;25246;-74
2024/04/16 03:41:15;;;;;;;0.60;0.40;;;;;;;8.68;91.63;95189.06;108555;1272;22526;-73
2024/04/16 03:43:45;;;;;;;0.20;0.10;;;;;;;8.71;92.02;95184.46;108511;1275;25266;-74
2024/04/16 03:46:16;;;;;;;0.90;0.40;;;;;;;8.71;91.50;95194.19;108521;1275;22550;-73
2024/04/16 03:48:47;;;;;;;1.20;0.40;;;;;;;8.67;91.24;95197.30;108544;1275;22533;-74
2024/04/16 03:51:17;;;;;;;0.90;0.50;;;;;;;8.64;91.32;95209.78;108495;1275;23353;-73
2024/04/16 03:53:48;;;;;;;3.30;0.50;;;;;;;8.59;91.48;95214.81;108553;1268;22568;-74
2024/04/16 03:56:21;;;;;;;1.50;0.50;;;;;;;8.55;91.71;95204.82;108513;1275;22639;-74
2024/04/16 03:59:14;;;;;;;0.40;0.40;;;;;;;8.50;91.85;95191.98;108526;1270;22526;-74
2024/04/16 04:01:46;;;;;;;0.70;0.30;;;;;;;8.48;91.93;95175.58;108502;1275;22611;-74
2024/04/16 04:04:17;;;;;;;0.70;0.30;;;;;;;8.46;92.02;95175.66;108499;1271;22536;-74
2024/04/16 04:06:47;;;;;;;0.50;0.30;;;;;;;8.47;92.16;95167.61;108478;1269;25275;-74
2024/04/16 04:09:18;;;;;;;0.90;0.30;;;;;;;8.48;92.33;95155.96;108440;1275;22520;-74
2024/04/16 04:11:49;;;;;;;2.60;0.40;;;;;;;8.46;92.51;95153.30;108473;1276;22598;-74
2024/04/16 04:14:22;;;;;;;0.30;0.30;;;;;;;8.39;92.70;95157.38;108429;1275;22549;-74
2024/04/16 04:16:52;;;;;;;0.60;0.40;;;;;;;8.31;93.25;95163.02;108413;1275;22649;-74
2024/04/16 04:19:23;;;;;;;3.10;0.70;;;;;;;8.25;93.45;95164.89;108475;1273;22563;-74
2024/04/16 04:21:54;;;;;;;1.30;0.50;;;;;;;8.23;93.50;95154.96;108469;1273;23291;-73
2024/04/16 04:24:25;;;;;;;1.30;0.70;;;;;;;8.26;93.49;95155.27;108577;1269;22519;-74
2024/04/16 04:26:56;;;;;;;0.50;0.40;;;;;;;8.27;93.45;95147.52;108459;1270;22547;-73
2024/04/16 04:29:26;;;;;;;0.90;0.30;;;;;;;8.28;93.35;95137.31;108421;1275;25245;-74
2024/04/16 04:31:57;;;;;;;0.90;0.60;;;;;;;8.27;93.32;95138.80;108545;1275;25462;-74
2024/04/16 04:34:28;;;;;;;0.90;0.50;;;;;;;8.27;93.47;95136.23;108444;1275;22535;-74
2024/04/16 04:36:59;;;;;;;1.10;0.40;;;;;;;8.26;93.72;95143.34;108487;1275;24430;-74
2024/04/16 04:39:29;;;;;;;0.90;0.80;;;;;;;8.27;94.20;95125.52;108525;1271;22571;-74
2024/04/16 04:42:00;;;;;;;0.80;0.60;;;;;;;8.27;94.15;95118.73;108552;1275;24998;-73
2024/04/16 04:44:31;;;;;;;0.40;0.30;;;;;;;8.25;94.33;95110.34;108520;1275;22550;-74
2024/04/16 04:47:01;;;;;;;1.60;0.30;;;;;;;8.25;94.47;95115.47;108439;1275;22534;-74
2024/04/16 04:49:32;;;;;;;2.30;0.50;;;;;;;8.25;94.91;95135.01;108534;1269;22528;-74
2024/04/16 04:52:03;;;;;;;1.20;0.60;;;;;;;8.26;95.23;95144.16;108452;1253;22539;-74
2024/04/16 04:54:34;;;;;;;1.00;0.60;;;;;;;8.28;95.52;95139.58;108516;1275;22586;-74
2024/04/16 04:57:05;;;;;;;1.10;0.70;;;;;;;8.27;96.08;95135.57;108401;1269;22562;-74
2024/04/16 04:59:35;;;;;;;1.20;0.60;;;;;;;8.26;96.40;95144.33;108529;1272;22525;-74
2024/04/16 05:02:09;;;;;;;1.50;0.70;;;;;;;8.26;96.59;95142.05;108465;1263;23534;-74
2024/04/16 05:04:40;;;;;;;3.00;0.80;;;;;;;8.27;96.49;95137.91;108596;1275;22526;-73
2024/04/16 05:07:11;;;;;;;0.80;0.70;;;;;;;8.30;96.44;95134.63;108489;1270;22570;-73
2024/04/16 05:09:41;;;;;;;1.10;0.40;;;;;;;8.38;96.15;95140.66;108519;1275;24255;-74
2024/04/16 05:12:12;;;;;;;0.80;0.60;;;;;;;8.46;95.58;95154.11;108507;1275;22525;-73
2024/04/16 05:14:45;;;;;;;0.80;0.50;;;;;;;8.51;94.88;95164.06;108506;1275;22526;-74
2024/04/16 05:17:16;;;;;;;1.80;0.60;;;;;;;8.56;94.26;95164.67;108528;1272;22572;-73
2024/04/16 05:19:47;;;;;;;0.70;0.40;;;;;;;8.59;93.88;95169.13;108532;1275;22536;-73
2024/04/16 05:22:17;;;;;;;0.30;0.20;;;;;;;8.64;93.07;95166.52;108538;1275;22536;-73
2024/04/16 05:24:49;;;;;;;1.50;0.80;;;;;;;8.70;92.60;95156.84;108516;1275;22565;-73
2024/04/16 05:27:19;;;;;;;1.90;0.50;;;;;;;8.73;92.16;95150.41;108496;1270;22566;-73
2024/04/16 05:29:51;;;;;;;1.90;0.40;;;;;;;8.73;92.01;95151.30;108542;1275;22525;-73
2024/04/16 05:32:22;;;;;;;0.90;0.30;;;;;;;8.72;91.61;95149.50;108520;1272;22683;-74
2024/04/16 05:34:53;;;;;;;0.40;0.30;;;;;;;8.74;91.38;95155.17;108512;1271;24395;-74
2024/04/16 05:37:23;;;;;;;1.60;0.80;;;;;;;8.74;91.25;95155.30;108505;1275;22749;-73
2024/04/16 05:39:54;;;;;;;2.10;1.10;;;;;;;8.74;91.43;95149.31;108523;1269;22539;-73
2024/04/16 05:42:25;;;;;;;1.60;0.80;;;;;;;8.76;91.12;95140.70;108553;1275;25490;-73
2024/04/16 05:44:55;;;;;;;1.00;0.40;;;;;;;8.81;90.96;95138.09;108552;1269;22551;-74
2024/04/16 05:47:26;;;;;;;0.50;0.40;;;;;;;8.84;90.10;95149.69;108501;1272;22529;-73
2024/04/16 05:49:58;;;;;;;1.10;0.50;;;;;;;8.85;89.31;95158.33;108486;1271;22540;-73
2024/04/16 05:52:29;;;;;;;0.70;0.30;;;;;;;8.84;88.08;95178.16;108532;1272;22526;-73
2024/04/16 05:54:59;;;;;;;0.40;0.30;;;;;;;8.86;88.07;95194.95;108520;1269;22557;-73
2024/04/16 05:57:30;;;;;;;0.20;0.20;;;;;;;8.86;87.91;95206.44;108441;1275;22532;-73
2024/04/16 06:00:01;;;;;;;1.00;0.50;;;;;;;8.85;87.92;95218.30;108450;1275;23111;-73
2024/04/16 06:02:32;;;;;;;1.10;0.40;;;;;;;8.79;88.56;95221.70;108437;1268;22517;-73
2024/04/16 06:05:03;;;;;;;2.20;1.10;;;;;;;8.62;88.09;95231.48;108480;1271;22565;-73
2024/04/16 06:07:33;;;;;;;1.30;0.60;;;;;;;8.57;89.65;95239.80;108596;1269;22625;-73
2024/04/16 06:10:04;;;;;;;2.00;0.50;;;;;;;8.52;88.94;95238.36;108530;1271;22525;-73
2024/04/16 06:12:35;;;;;;;1.90;0.60;;;;;;;8.30;88.93;95236.72;108684;1271;22537;-73
2024/04/16 06:15:06;;;;;;;2.10;0.40;;;;;;;8.14;89.06;95237.30;108652;1271;22573;-73
2024/04/16 06:17:36;;;;;;;0.70;0.30;;;;;;;8.00;88.96;95242.66;108568;1275;23875;-73
2024/04/16 06:20:09;;;;;;;6.30;0.50;;;;;;;7.85;88.78;95244.91;108654;1271;22527;-73
2024/04/16 06:22:40;;;;;;;3.30;0.60;;;;;;;7.74;89.11;95244.43;108666;1269;22661;-73
2024/04/16 06:25:11;;;;;;;2.40;0.60;;;;;;;7.69;89.27;95248.58;108618;1271;22565;-73
2024/04/16 06:27:41;;;;;;;2.50;0.70;;;;;;;7.62;89.49;95244.66;108592;1271;22532;-73
2024/04/16 06:30:12;;;;;;;2.70;0.90;;;;;;;7.58;89.89;95245.40;108575;1268;22565;-73
2024/04/16 06:32:43;;;;;;;3.60;1.20;;;;;;;7.56;90.26;95246.46;108647;1274;22512;-73
2024/04/16 06:35:14;;;;;;;2.10;0.80;;;;;;;7.55;90.65;95245.38;108646;1268;22946;-73
2024/04/16 06:37:44;;;;;;;3.00;1.20;;;;;;;7.57;91.28;95253.92;108613;1271;22649;-73
2024/04/16 06:40:16;;;;;;;3.40;1.10;;;;;;;7.62;91.74;95269.89;108516;1268;22526;-73
2024/04/16 06:42:49;;;;;;;1.40;0.90;;;;;;;7.63;91.80;95264.13;108636;1271;22617;-73
2024/04/16 06:45:20;;;;;;;2.60;1.10;;;;;;;7.61;91.94;95258.50;108467;1257;24237;-73
2024/04/16 06:47:53;;;;;;;3.40;2.00;;;;;;;7.63;92.27;95264.96;108564;1275;22614;-73
2024/04/16 06:50:24;;;;;;;7.30;2.90;;;;;;;7.66;92.39;95262.10;108541;1269;22529;-73
2024/04/16 06:52:55;;;;;;;3.50;1.70;;;;;;;7.70;92.70;95262.44;108674;1274;22662;-73
2024/04/16 06:55:26;;;;;;;3.40;1.00;;;;;;;7.72;92.41;95267.14;108563;1271;22571;-73
2024/04/16 06:57:57;;;;;;;3.20;1.10;;;;;;;7.71;92.07;95270.80;108504;1271;24272;-73
2024/04/16 07:00:28;;;;;;;3.30;1.30;;;;;;;7.69;91.83;95287.40;108339;1268;24445;-74
2024/04/16 07:02:59;;;;;;;3.30;1.10;;;;;;;7.65;91.60;95297.52;108482;1268;22525;-73
2024/04/16 07:05:31;;;;;;;1.70;0.60;;;;;;;7.62;90.97;95301.17;108495;1268;22568;-73
2024/04/16 07:08:01;;;;;;;1.10;0.40;;;;;;;7.52;89.36;95305.61;108498;1268;24276;-73
2024/04/16 07:10:32;;;;;;;1.80;0.60;;;;;;;7.37;87.14;95303.33;108518;1268;23313;-73
2024/04/16 07:13:03;;;;;;;3.00;0.50;;;;;;;7.24;85.75;95301.96;108330;1268;22526;-73
2024/04/16 07:15:33;;;;;;;1.50;0.60;;;;;;;7.16;85.57;95302.20;108498;1272;23280;-73
2024/04/16 07:18:05;;;;;;;4.40;1.30;;;;;;;7.10;85.74;95293.84;108466;1271;22572;-73
2024/04/16 07:20:36;;;;;;;10.60;5.60;;;;;;;7.03;85.32;95290.06;108522;1275;22530;-73
2024/04/16 07:23:07;;;;;;;3.60;1.90;;;;;;;6.97;84.99;95287.63;108492;1268;22530;-73
2024/04/16 07:25:37;;;;;;;4.40;1.10;;;;;;;6.93;84.88;95277.25;108425;1275;25316;-73
2024/04/16 07:28:09;;;;;;;2.20;1.70;;;;;;;6.96;85.06;95264.52;108441;1272;22522;-73
2024/04/16 07:30:40;;;;;;;13.80;9.80;;;;;;;6.96;84.65;95260.45;108492;1269;25387;-73
2024/04/16 07:33:11;;;;;;;3.00;1.40;;;;;;;6.97;84.45;95260.70;108484;1271;23987;-73
2024/04/16 07:35:45;;;;;;;2.70;0.60;;;;;;;6.99;84.76;95258.23;108528;1271;25271;-73
2024/04/16 07:38:18;;;;;;;3.60;0.70;;;;;;;7.05;85.06;95260.09;108515;1268;24198;-73
2024/04/16 07:40:55;;;;;;;1.30;0.50;;;;;;;7.17;85.31;95269.19;108517;1275;22525;-73
2024/04/16 07:43:26;;;;;;;1.80;0.60;;;;;;;7.22;84.80;95278.55;108491;1271;22715;-73
2024/04/16 07:45:58;;;;;;;2.70;0.50;;;;;;;7.23;84.50;95284.23;108553;1272;22573;-72
2024/04/16 07:48:29;;;;;;;2.00;0.80;;;;;;;7.25;84.63;95275.26;108386;1272;22529;-73
2024/04/16 07:51:00;;;;;;;2.40;0.50;;;;;;;7.39;85.16;95274.70;108396;1271;22565;-72
2024/04/16 07:53:31;;;;;;;2.50;0.70;;;;;;;7.49;84.60;95312.77;108398;1276;22541;-72
2024/04/16 07:56:02;;;;;;;2.70;1.10;;;;;;;7.53;84.72;95349.25;108379;1276;22519;-72
2024/04/16 07:58:32;;;;;;;4.50;1.90;;;;;;;7.53;84.76;95365.03;108432;1268;22523;-72
2024/04/16 08:01:03;;;;;;;3.30;1.60;;;;;;;7.46;84.45;95349.01;108537;1271;22657;-72
2024/04/16 08:03:34;;;;;;;3.70;1.40;;;;;;;7.36;84.01;95334.34;108457;1269;22546;-73
2024/04/16 08:06:05;;;;;;;2.30;0.90;;;;;;;7.34;84.14;95342.81;108464;1273;25245;-73
2024/04/16 08:08:37;;;;;;;3.60;1.70;;;;;;;7.37;84.01;95348.41;108385;1271;24472;-72
2024/04/16 08:11:12;;;;;;;2.60;1.40;;;;;;;7.34;83.27;95359.91;108450;1268;22624;-72
2024/04/16 08:13:43;;;;;;;1.90;1.20;;;;;;;7.35;83.76;95368.42;108497;1275;22562;-72
2024/04/16 08:16:14;;;;;;;3.10;2.10;;;;;;;7.46;83.87;95370.10;108501;1271;25078;-72
2024/04/16 08:18:44;;;;;;;3.10;2.20;;;;;;;7.49;83.44;95382.70;108563;1269;22529;-72
2024/04/16 08:21:15;;;;;;;3.00;1.50;;;;;;;7.47;83.05;95382.27;108441;1268;24366;-72
2024/04/16 08:23:46;;;;;;;4.30;1.80;;;;;;;7.41;82.83;95383.08;108416;1275;22639;-72
2024/04/16 08:26:16;;;;;;;2.00;0.80;;;;;;;7.42;82.81;95381.33;108387;1268;26462;-74
2024/04/16 08:28:47;;;;;;;1.10;0.70;;;;;;;7.43;82.61;95372.67;108418;1269;22537;-73
2024/04/16 08:31:17;;;;;;;4.90;1.80;;;;;;;7.48;82.33;95370.49;108559;1275;22541;-73
2024/04/16 08:33:48;;;;;;;2.30;0.70;;;;;;;7.47;80.52;95369.23;108613;1270;22592;-73
2024/04/16 08:36:21;;;;;;;1.70;0.80;;;;;;;7.43;80.28;95370.19;108457;1269;22577;-73
2024/04/16 08:38:55;;;;;;;5.80;2.00;;;;;;;7.50;80.07;95365.66;108571;1275;22530;-73
2024/04/16 08:41:26;;;;;;;7.50;2.40;;;;;;;7.53;79.26;95355.58;108664;1276;22541;-73
2024/04/16 08:44:00;;;;;;;5.60;1.50;;;;;;;7.57;78.76;95355.19;108672;1267;22616;-73
2024/04/16 08:46:32;;;;;;;3.20;0.90;;;;;;;7.61;77.96;95364.48;108627;1268;22601;-73
2024/04/16 08:49:03;;;;;;;2.20;0.90;;;;;;;7.67;78.35;95373.23;108658;1268;22537;-73
2024/04/16 08:51:36;;;;;;;1.10;0.70;;;;;;;7.77;77.42;95372.23;108627;1269;22528;-74
2024/04/16 08:54:10;;;;;;;2.30;0.80;;;;;;;7.81;77.45;95369.98;108562;1268;22579;-73
2024/04/16 08:56:41;;;;;;;9.10;3.00;;;;;;;7.82;76.20;95387.75;108539;1269;23257;-73
2024/04/16 08:59:12;;;;;;;1.90;0.90;;;;;;;7.62;75.16;95396.57;108404;1268;22522;-73
2024/04/16 09:01:45;;;;;;;2.10;0.80;;;;;;;7.52;74.83;95395.58;108527;1275;22537;-73
2024/04/16 09:04:19;;;;;;;2.00;0.70;;;;;;;7.43;74.22;95399.20;108352;1271;22551;-73
2024/04/16 09:06:52;;;;;;;2.50;1.00;;;;;;;7.37;74.09;95395.59;108362;1267;22530;-73
2024/04/16 09:09:22;;;;;;;1.80;1.20;;;;;;;7.31;73.54;95401.96;110461;1275;22252;-73
2024/04/16 09:11:53;;;;;;;3.70;2.60;;;;;;;7.22;73.12;95399.04;108832;1275;22542;-73
2024/04/16 09:14:24;;;;;;;3.80;2.60;;;;;;;7.11;72.96;95405.15;108517;1275;22638;-73
2024/04/16 09:16:54;;;;;;;3.50;1.10;;;;;;;7.05;73.11;95414.30;108630;1275;22529;-73
2024/04/16 09:19:27;;;;;;;2.00;0.80;;;;;;;7.03;73.96;95408.94;108649;1275;22667;-73
2024/04/16 09:22:01;;;;;;;3.00;0.90;;;;;;;7.08;73.35;95406.46;108706;1275;22546;-73
2024/04/16 09:24:32;;;;;;;3.60;0.80;;;;;;;7.07;72.96;95407.89;108639;1275;22635;-73
2024/04/16 09:27:08;;;;;;;4.10;1.00;;;;;;;7.05;73.22;95411.47;108581;1275;25436;-73
2024/04/16 09:29:39;;;;;;;1.80;1.20;;;;;;;7.04;73.66;95403.14;108644;1275;22552;-73
2024/04/16 09:32:10;;;;;;;1.20;0.80;;;;;;;7.08;73.85;95400.23;108669;1275;22540;-73
2024/04/16 09:34:43;;;;;;;4.00;1.30;;;;;;;7.08;73.83;95405.09;108666;1275;22537;-73
2024/04/16 09:37:21;;;;;;;3.50;1.20;;;;;;;7.10;74.55;95407.27;108646;1275;26586;-73
2024/04/16 09:39:54;;;;;;;2.10;1.00;;;;;;;7.17;74.93;95405.38;108669;1268;23013;-73
2024/04/16 09:42:26;;;;;;;8.40;1.40;;;;;;;7.21;74.13;95403.86;108647;1268;22536;-73
2024/04/16 09:44:57;;;;;;;3.40;1.40;;;;;;;7.23;74.26;95407.61;108636;1275;22526;-73
2024/04/16 09:47:30;;;;;;;1.30;0.90;;;;;;;7.32;74.18;95407.33;108666;1268;22649;-73
2024/04/16 09:50:02;;;;;;;5.10;1.00;;;;;;;7.45;74.38;95398.96;108643;1252;22555;-73
2024/04/16 09:52:35;;;;;;;4.90;1.30;;;;;;;7.54;74.39;95388.42;108611;1276;22542;-73
2024/04/16 09:55:09;;;;;;;1.90;0.80;;;;;;;7.63;73.83;95387.13;108607;1275;22559;-73
2024/04/16 09:57:41;;;;;;;2.00;1.00;;;;;;;7.72;73.75;95384.02;108590;1275;22538;-73
2024/04/16 10:00:14;;;;;;;2.20;0.80;;;;;;;7.86;73.32;95374.49;108632;1269;22534;-73
2024/04/16 10:02:47;;;;;;;2.50;0.80;;;;;;;7.91;72.10;95374.69;108518;1275;22540;-73
2024/04/16 10:05:18;;;;;;;2.00;1.00;;;;;;;7.90;71.51;95386.84;108580;1268;22524;-73
2024/04/16 10:07:49;;;;;;;1.90;0.80;;;;;;;8.00;72.24;95400.79;108567;1271;25288;-73
2024/04/16 10:10:20;;;;;;;3.70;0.90;;;;;;;8.07;71.99;95414.23;108572;1269;22528;-73
2024/04/16 10:12:51;;;;;;;3.20;1.50;;;;;;;8.05;71.89;95415.76;108518;1275;22546;-73
2024/04/16 10:15:22;;;;;;;1.80;1.00;;;;;;;8.16;72.93;95419.30;108586;1269;22680;-73
2024/04/16 10:17:53;;;;;;;4.80;1.30;;;;;;;8.32;73.06;95411.84;108532;1268;22528;-73
2024/04/16 10:20:28;;;;;;;2.90;1.00;;;;;;;8.42;72.91;95403.34;108568;1275;22542;-73
2024/04/16 10:23:00;;;;;;;2.00;0.90;;;;;;;8.48;72.99;95396.09;108566;1271;24215;-73
2024/04/16 10:25:33;;;;;;;3.00;1.30;;;;;;;8.60;72.34;95403.30;108615;1275;22547;-73
2024/04/16 10:28:05;;;;;;;2.10;1.00;;;;;;;8.52;71.01;95411.79;108507;1275;25342;-73
2024/04/16 10:30:37;;;;;;;4.20;1.10;;;;;;;8.34;71.07;95432.04;108555;1268;22530;-73
2024/04/16 10:33:13;;;;;;;1.90;1.00;;;;;;;8.23;71.05;95442.42;108578;1274;22530;-73
2024/04/16 10:35:47;;;;;;;3.20;1.50;;;;;;;8.08;70.44;95443.05;108623;1275;22543;-73
2024/04/16 10:38:20;;;;;;;2.10;1.00;;;;;;;7.86;69.90;95445.52;108649;1271;22526;-73
2024/04/16 10:40:57;;;;;;;4.90;1.80;;;;;;;7.76;70.21;95432.40;108628;1269;22558;-73
2024/04/16 10:43:28;;;;;;;2.70;1.40;;;;;;;7.76;70.94;95426.91;108663;1268;25078;-73
2024/04/16 10:45:59;;;;;;;4.40;0.80;;;;;;;7.80;70.86;95424.78;108550;1275;25470;-73
2024/04/16 10:48:31;;;;;;;2.30;1.00;;;;;;;7.79;70.71;95414.98;108609;1268;22942;-73
2024/04/16 10:51:01;;;;;;;1.00;0.70;;;;;;;7.89;71.19;95406.05;108564;1275;22529;-73
2024/04/16 10:53:32;;;;;;;3.10;1.00;;;;;;;7.93;69.50;95393.95;108575;1268;24403;-73
2024/04/16 10:56:03;;;;;;;3.40;0.90;;;;;;;7.89;68.86;95391.02;108590;1275;22552;-73
2024/04/16 10:58:36;;;;;;;3.90;0.80;;;;;;;8.07;69.67;95391.86;108589;1271;22539;-73
2024/04/16 11:01:07;;;;;;;2.90;0.90;;;;;;;8.26;68.89;95414.16;108621;1275;22537;-73
2024/04/16 11:03:38;;;;;;;2.50;1.00;;;;;;;8.27;67.14;95419.64;108660;1275;25454;-74
2024/04/16 11:06:08;;;;;;;1.80;0.80;;;;;;;8.12;66.08;95421.59;108652;1275;22522;-73
2024/04/16 11:08:41;;;;;;;5.40;1.10;;;;;;;7.98;66.20;95425.74;108646;1275;22537;-72
2024/04/16 11:11:13;;;;;;;1.60;0.80;;;;;;;7.90;66.29;95423.79;108628;1269;22628;-73
2024/04/16 11:13:45;;;;;;;2.70;1.10;;;;;;;7.92;66.19;95407.11;108673;1275;22529;-74
2024/04/16 11:16:15;;;;;;;1.20;0.90;;;;;;;7.94;66.35;95405.13;108520;1275;22525;-73
2024/04/16 11:18:48;;;;;;;2.00;0.80;;;;;;;7.99;66.40;95397.52;108507;1275;25516;-73
2024/04/16 11:21:19;;;;;;;1.80;0.70;;;;;;;8.05;66.36;95394.27;108562;1276;22533;-73
2024/04/16 11:23:50;;;;;;;2.10;0.90;;;;;;;8.04;66.45;95391.91;108555;1275;22544;-73
2024/04/16 11:26:21;;;;;;;2.30;0.90;;;;;;;7.96;65.55;95393.15;108481;1272;22523;-73
2024/04/16 11:28:54;;;;;;;1.70;0.80;;;;;;;7.84;64.87;95406.98;108546;1269;25285;-73
2024/04/16 11:31:25;;;;;;;2.60;0.60;;;;;;;7.74;64.56;95413.32;108554;1274;22542;-73
2024/04/16 11:33:57;;;;;;;2.40;0.70;;;;;;;7.65;63.71;95417.38;108566;1275;25334;-73
2024/04/16 11:36:28;;;;;;;2.40;0.80;;;;;;;7.55;63.96;95424.12;108577;1273;24150;-73
2024/04/16 11:38:58;;;;;;;1.70;0.80;;;;;;;7.53;64.06;95432.17;108540;1275;23537;-73
2024/04/16 11:41:31;;;;;;;2.60;1.10;;;;;;;7.59;64.79;95431.96;108580;1275;22532;-74
2024/04/16 11:44:03;;;;;;;1.70;0.90;;;;;;;7.76;65.21;95418.92;108558;1274;22539;-73
2024/04/16 11:46:35;;;;;;;2.10;0.60;;;;;;;7.98;64.53;95422.05;108551;1272;22540;-73
2024/04/16 11:49:06;;;;;;;1.40;0.80;;;;;;;8.07;63.56;95416.35;108589;1268;24704;-73
2024/04/16 11:51:36;;;;;;;1.90;0.70;;;;;;;8.04;63.14;95410.75;108600;1275;22528;-73